Map

Track Data

SID SEASON NUMBER BASIN SUBBASIN NAME ISO_TIME NATURE LAT LON WMO_WIND WMO_PRES WMO_AGENCY TRACK_TYPE DIST2LAND LANDFALL IFLAG USA_AGENCY USA_ATCF_ID USA_LAT USA_LON USA_RECORD USA_STATUS USA_WIND USA_PRES USA_SSHS USA_R34_NE USA_R34_SE USA_R34_SW USA_R34_NW USA_R50_NE USA_R50_SE USA_R50_SW USA_R50_NW USA_R64_NE USA_R64_SE USA_R64_SW USA_R64_NW USA_POCI USA_ROCI USA_RMW USA_EYE TOKYO_LAT TOKYO_LON TOKYO_GRADE TOKYO_WIND TOKYO_PRES TOKYO_R50_DIR TOKYO_R50_LONG TOKYO_R50_SHORT TOKYO_R30_DIR TOKYO_R30_LONG TOKYO_R30_SHORT TOKYO_LAND CMA_LAT CMA_LON CMA_CAT CMA_WIND CMA_PRES HKO_LAT HKO_LON HKO_CAT HKO_WIND HKO_PRES NEWDELHI_LAT NEWDELHI_LON NEWDELHI_GRADE NEWDELHI_WIND NEWDELHI_PRES NEWDELHI_CI NEWDELHI_DP NEWDELHI_POCI REUNION_LAT REUNION_LON REUNION_TYPE REUNION_WIND REUNION_PRES REUNION_TNUM REUNION_CI REUNION_RMW REUNION_R34_NE REUNION_R34_SE REUNION_R34_SW REUNION_R34_NW REUNION_R50_NE REUNION_R50_SE REUNION_R50_SW REUNION_R50_NW REUNION_R64_NE REUNION_R64_SE REUNION_R64_SW REUNION_R64_NW BOM_LAT BOM_LON BOM_TYPE BOM_WIND BOM_PRES BOM_TNUM BOM_CI BOM_RMW BOM_R34_NE BOM_R34_SE BOM_R34_SW BOM_R34_NW BOM_R50_NE BOM_R50_SE BOM_R50_SW BOM_R50_NW BOM_R64_NE BOM_R64_SE BOM_R64_SW BOM_R64_NW BOM_ROCI BOM_POCI BOM_EYE BOM_POS_METHOD BOM_PRES_METHOD NADI_LAT NADI_LON NADI_CAT NADI_WIND NADI_PRES WELLINGTON_LAT WELLINGTON_LON WELLINGTON_WIND WELLINGTON_PRES DS824_LAT DS824_LON DS824_STAGE DS824_WIND DS824_PRES TD9636_LAT TD9636_LON TD9636_STAGE TD9636_WIND TD9636_PRES TD9635_LAT TD9635_LON TD9635_WIND TD9635_PRES TD9635_ROCI NEUMANN_LAT NEUMANN_LON NEUMANN_CLASS NEUMANN_WIND NEUMANN_PRES MLC_LAT MLC_LON MLC_CLASS MLC_WIND MLC_PRES USA_GUST BOM_GUST BOM_GUST_PER REUNION_GUST REUNION_GUST_PER USA_SEAHGT USA_SEARAD_NE USA_SEARAD_SE USA_SEARAD_SW USA_SEARAD_NW STORM_SPEED STORM_DIR
1912302N08089 1912 59 NI BB NOT_NAMED 1912-10-28 00:00:00 TS 8.40000 89.2000 main 733 733 _________O____ -1 8.40000 89.2000 TC 64 8 287
1912302N08089 1912 59 NI BB NOT_NAMED 1912-10-28 03:00:00 TS 8.52342 88.8050 main 777 726 _________PO___ -1 8.58513 88.6076 TC 64 8.40000 89.2000 4 10 289
1912302N08089 1912 59 NI BB NOT_NAMED 1912-10-28 06:00:00 TS 8.72283 88.2294 main 715 665 _________OP___ -1 8.80000 88.0000 TC 64 8.60707 88.5736 4 13 291
1912302N08089 1912 59 NI BB NOT_NAMED 1912-10-28 09:00:00 TS 8.96752 87.6260 main 657 610 _________PP___ -1 9.07001 87.3775 TC 64 8.83089 87.9575 4 13 295
1912302N08089 1912 59 NI BB NOT_NAMED 1912-10-28 12:00:00 TS 9.24462 87.0813 main 610 569 _________OP___ -1 9.40000 86.8000 TC 64 9.08923 87.3627 4 12 301
1912302N08089 1912 59 NI BB NOT_NAMED 1912-10-28 15:00:00 TS 9.58869 86.5600 main 573 538 _________PO___ -1 9.77737 86.3199 TC 64 9.40000 86.8000 4 12 307
1912302N08089 1912 59 NI BB NOT_NAMED 1912-10-28 18:00:00 TS 9.98724 86.0902 main 542 517 _________OP___ -1 10.2000 85.9000 TC 64 9.77449 86.2803 4 12 313
1912302N08089 1912 59 NI BB NOT_NAMED 1912-10-28 21:00:00 TS 10.4237 85.6390 main 512 503 _________PP___ -1 10.6500 85.4625 TC 64 10.1973 85.8155 4 12 317
1912302N08089 1912 59 NI BB NOT_NAMED 1912-10-29 00:00:00 TS 10.8733 85.2589 main 511 499 _________OP___ -1 11.1000 85.1000 TC 64 10.6465 85.4178 4 11 323
1912302N08089 1912 59 NI BB NOT_NAMED 1912-10-29 03:00:00 TS 11.3000 84.9774 main 508 505 _________PO___ -1 11.4999 84.8549 TC 64 11.1000 85.1000 4 10 330
1912302N08089 1912 59 NI BB NOT_NAMED 1912-10-29 06:00:00 TS 11.7103 84.7711 main 508 480 _________OP___ -1 11.9000 84.7000 TC 64 11.5206 84.8422 4 9 337
1912302N08089 1912 59 NI BB NOT_NAMED 1912-10-29 09:00:00 TS 12.1423 84.6173 main 480 462 _________PP___ -1 12.3425 84.5700 TC 64 11.9421 84.6647 4 9 345
1912302N08089 1912 59 NI BB NOT_NAMED 1912-10-29 12:00:00 TS 12.5838 84.5274 main 462 456 _________OP___ -1 12.8000 84.5000 TC 64 12.3676 84.5549 4 9 352
1912302N08089 1912 59 NI BB NOT_NAMED 1912-10-29 15:00:00 TS 13.0250 84.4887 main 456 419 _________PO___ -1 13.2500 84.4775 TC 64 12.8000 84.5000 4 9 357
1912302N08089 1912 59 NI BB NOT_NAMED 1912-10-29 18:00:00 TS 13.4754 84.4831 main 419 383 _________OP___ -1 13.7000 84.5000 TC 64 13.2509 84.4663 4 9 0
1912302N08089 1912 59 NI BB NOT_NAMED 1912-10-29 21:00:00 TS 13.9325 84.5123 main 383 348 _________PP___ -1 14.1575 84.5425 TC 64 13.7074 84.4822 4 9 5
1912302N08089 1912 59 NI BB NOT_NAMED 1912-10-30 00:00:00 TS 14.3801 84.5660 main 348 318 _________OP___ -1 14.6000 84.6000 TC 64 14.1603 84.5320 4 9 7
1912302N08089 1912 59 NI BB NOT_NAMED 1912-10-30 03:00:00 TS 14.8037 84.6213 main 318 300 _________PO___ -1 15.0075 84.6426 TC 64 14.6000 84.6000 4 8 7
1912302N08089 1912 59 NI BB NOT_NAMED 1912-10-30 06:00:00 TS 15.2092 84.6763 main 300 275 _________OP___ -1 15.4000 84.7000 TC 64 15.0184 84.6526 4 8 9
1912302N08089 1912 59 NI BB NOT_NAMED 1912-10-30 09:00:00 TS 15.6112 84.7563 main 281 247 _________PP___ -1 15.8000 84.7925 TC 64 15.4225 84.7201 4 8 12
1912302N08089 1912 59 NI BB NOT_NAMED 1912-10-30 12:00:00 TS 16.0076 84.8513 main 254 223 _________OP___ -1 16.2000 84.9000 TC 64 15.8153 84.8026 4 8 13
1912302N08089 1912 59 NI BB NOT_NAMED 1912-10-30 15:00:00 TS 16.4037 84.9463 main 223 202 _________PO___ -1 16.6075 84.9926 TC 64 16.2000 84.9000 4 8 14
1912302N08089 1912 59 NI BB NOT_NAMED 1912-10-30 18:00:00 TS 16.7626 85.0456 main 193 177 _________OP___ -1 17.0000 85.1000 TC 64 16.5253 84.9911 4 7 17
1912302N08089 1912 59 NI BB NOT_NAMED 1912-10-30 21:00:00 TS 17.0750 85.1634 main 177 161 _________PP___ -1 17.2975 85.2279 TC 64 16.8525 85.0989 4 8 20
1912302N08089 1912 59 NI BB NOT_NAMED 1912-10-31 00:00:00 TS 17.4642 85.3161 main 153 130 _________OP___ -1 17.7000 85.4000 TC 64 17.2284 85.2321 4 10 19
1912302N08089 1912 59 NI BB NOT_NAMED 1912-10-31 03:00:00 TS 18.0488 85.5174 main 130 103 _________PO___ -1 18.3976 85.6348 TC 55 17.7000 85.4000 4 14 18
1912302N08089 1912 59 NI BB NOT_NAMED 1912-10-31 06:00:00 TS 18.7907 85.7624 main 98 39 _________OP___ -1 19.2000 85.9000 TC 47 18.3814 85.6248 4 16 18
1912302N08089 1912 59 NI BB NOT_NAMED 1912-10-31 09:00:00 TS 19.5514 86.0239 main 30 0 _________PP___ -1 19.9525 86.1649 TC 38 19.1503 85.8829 4 16 18
1912302N08089 1912 59 NI BB NOT_NAMED 1912-10-31 12:00:00 TS 20.2595 86.2749 main 0 0 _________OP___ -1 20.6000 86.4000 TC 30 19.9190 86.1498 4 14 18
1912302N08089 1912 59 NI BB NOT_NAMED 1912-10-31 15:00:00 TS 20.8262 86.4790 main 0 0 _________PO___ -1 21.0524 86.5579 TC 30 20.6000 86.4000 1 11 20
1912302N08089 1912 59 NI BB NOT_NAMED 1912-10-31 18:00:00 TS 21.2458 86.6508 main 0 0 _________OP___ -1 21.4000 86.7000 TC 30 21.0916 86.6016 1 9 23
1912302N08089 1912 59 NI BB NOT_NAMED 1912-10-31 21:00:00 TS 21.6286 86.8406 main 0 0 _________PP___ -1 21.7725 86.9000 TC 30 21.4846 86.7812 1 8 26
1912302N08089 1912 59 NI BB NOT_NAMED 1912-11-01 00:00:00 TS 21.9552 87.0226 main 0 0 _________OP___ -1 22.1000 87.1000 TC 30 21.8104 86.9451 1 7 28
1912302N08089 1912 59 NI BB NOT_NAMED 1912-11-01 03:00:00 TS 22.2287 87.1788 main 0 0 _________PO___ -1 22.3575 87.2577 TC 30 22.1000 87.1000 1 6 28
1912302N08089 1912 59 NI BB NOT_NAMED 1912-11-01 06:00:00 TS 22.4937 87.3269 main 0 0 _________OP___ -1 22.6000 87.4000 TC 30 22.3874 87.2537 1 6 27
1912302N08089 1912 59 NI BB NOT_NAMED 1912-11-01 09:00:00 TS 22.7674 87.4717 main 0 0 _________PP___ -1 22.8850 87.5426 TC 30 22.6498 87.4008 1 6 26
1912302N08089 1912 59 NI BB NOT_NAMED 1912-11-01 12:00:00 TS 23.0562 87.6237 main 0 0 _________OP___ -1 23.2000 87.7000 TC 30 22.9124 87.5475 1 7 27
1912302N08089 1912 59 NI BB NOT_NAMED 1912-11-01 15:00:00 TS 23.3675 87.8000 main 0 0 _________PO___ -1 23.5350 87.9000 TC 30 23.2000 87.7000 1 7 26
1912302N08089 1912 59 NI BB NOT_NAMED 1912-11-01 18:00:00 TS 23.6894 87.9647 main 0 0 _________OP___ -1 23.9000 88.1000 TC 30 23.5314 87.8633 1 8 23
1912302N08089 1912 59 NI BB NOT_NAMED 1912-11-01 21:00:00 TS 24.0571 88.1267 main 0 0 _________PP___ -1 24.2925 88.2624 TC 30 23.9002 88.0362 1 8 21
1912302N08089 1912 59 NI BB NOT_NAMED 1912-11-02 00:00:00 TS 24.4293 88.2774 main 0 0 _________OP___ -1 24.7000 88.4000 TC 30 24.2940 88.2160 1 7 21
1912302N08089 1912 59 NI BB NOT_NAMED 1912-11-02 03:00:00 NR 24.7000 88.4000 main 0 __________O___ -1 TC 24.7000 88.4000 1 6 23

About IBTrACS Database

This database is a web-friendly format of International Best Track Archive for Climate Stewardship (IBTrACS), a global best track data archive curated by NOAA dating back to 1842.

Updated: 2021-12-01